createdAt,value
2023-04-02T10:09:00.365Z,14.68
2023-04-02T10:11:46.270Z,14.96
2023-04-02T10:14:27.070Z,14.84
2023-04-02T10:16:57.790Z,15.27
2023-04-02T10:19:31.019Z,15.10
2023-04-02T10:22:04.664Z,14.56
2023-04-02T10:24:35.805Z,15.33
2023-04-02T10:27:18.048Z,15.06
2023-04-02T10:30:02.546Z,15.03
2023-04-02T10:32:44.458Z,14.45
2023-04-02T10:35:21.055Z,14.34
2023-04-02T10:38:04.249Z,14.44
2023-04-02T10:40:37.568Z,14.36
2023-04-02T10:43:45.837Z,14.95
2023-04-02T10:46:23.046Z,15.12
2023-04-02T10:49:02.821Z,14.91
2023-04-02T10:51:39.570Z,14.95
2023-04-02T10:54:24.476Z,14.95
2023-04-02T10:56:58.374Z,14.63
2023-04-02T10:59:34.459Z,14.65
2023-04-02T11:02:15.100Z,14.69
2023-04-02T11:04:47.237Z,14.82
2023-04-02T11:07:20.824Z,15.63
2023-04-02T11:09:52.023Z,14.95
2023-04-02T11:12:30.689Z,15.09
2023-04-02T11:15:00.357Z,15.36
2023-04-02T11:17:29.732Z,15.22
2023-04-02T11:20:40.796Z,15.54
2023-04-02T11:23:13.094Z,15.74
2023-04-02T11:25:46.685Z,16.08
2023-04-02T11:28:28.210Z,16.84
2023-04-02T11:30:57.901Z,16.43
2023-04-02T11:33:44.691Z,15.80
2023-04-02T11:36:52.890Z,15.49
2023-04-02T11:39:49.658Z,15.30
2023-04-02T11:42:30.094Z,16.70
2023-04-02T11:45:22.993Z,16.67
2023-04-02T11:48:28.258Z,16.33
2023-04-02T11:50:56.923Z,16.42
2023-04-02T11:53:31.698Z,16.02
2023-04-02T11:56:31.183Z,16.12
2023-04-02T11:59:08.383Z,16.46
2023-04-02T12:01:55.837Z,16.13
2023-04-02T12:04:49.807Z,16.16
2023-04-02T12:07:46.847Z,16.09
2023-04-02T12:10:20.275Z,16.06
2023-04-02T12:12:49.794Z,16.59
2023-04-02T12:15:38.789Z,16.78
2023-04-02T12:18:15.774Z,16.76
2023-04-02T12:20:51.036Z,16.42
2023-04-02T12:23:25.568Z,16.11
2023-04-02T12:25:58.776Z,16.57
2023-04-02T12:28:31.543Z,16.57
2023-04-02T12:31:14.632Z,17.10
2023-04-02T12:33:45.029Z,17.17
2023-04-02T12:36:21.508Z,18.15
2023-04-02T12:38:53.262Z,17.87
2023-04-02T12:41:27.302Z,17.24
2023-04-02T12:44:01.634Z,17.29
2023-04-02T12:46:36.435Z,16.98
2023-04-02T12:49:12.489Z,16.74
2023-04-02T12:51:43.655Z,17.24
2023-04-02T12:54:16.045Z,17.21
2023-04-02T12:56:45.181Z,17.73
2023-04-02T12:59:30.324Z,17.21
2023-04-02T13:02:01.397Z,16.97
2023-04-02T13:04:34.311Z,16.98
2023-04-02T13:07:04.605Z,16.55
2023-04-02T13:09:45.562Z,16.66
2023-04-02T13:12:28.896Z,16.74
2023-04-02T13:14:59.073Z,17.22
2023-04-02T13:17:44.708Z,17.10
2023-04-02T13:20:33.226Z,16.40
2023-04-02T13:23:05.157Z,17.11
2023-04-02T13:25:38.665Z,17.07
2023-04-02T13:28:10.307Z,16.94
2023-04-02T13:30:39.369Z,16.94
2023-04-02T13:33:09.611Z,17.01
2023-04-02T13:35:42.071Z,16.61
2023-04-02T13:38:12.018Z,16.73
2023-04-02T13:40:41.787Z,16.28
2023-04-02T13:43:19.288Z,16.60
2023-04-02T13:45:52.546Z,16.87
2023-04-02T13:48:26.526Z,16.85
2023-04-02T13:50:58.136Z,16.73
2023-04-02T13:53:33.574Z,16.40
2023-04-02T13:56:02.153Z,15.91
2023-04-02T13:58:33.174Z,16.00
2023-04-02T14:01:03.079Z,16.61
2023-04-02T14:03:34.926Z,16.26
2023-04-02T14:06:09.647Z,16.29
2023-04-02T14:08:50.759Z,16.26
2023-04-02T14:11:34.659Z,16.52
2023-04-02T14:14:28.596Z,16.53
2023-04-02T14:17:13.296Z,16.42
2023-04-02T14:20:00.625Z,16.52
2023-04-02T14:22:43.652Z,16.78
2023-04-02T14:25:20.830Z,16.78
2023-04-02T14:28:01.139Z,16.60
2023-04-02T14:30:41.737Z,16.66
2023-04-02T14:33:25.185Z,17.17
2023-04-02T14:36:01.365Z,17.21
2023-04-02T14:38:40.779Z,16.88
2023-04-02T14:41:17.816Z,16.78
2023-04-02T14:43:54.803Z,16.81
2023-04-02T14:46:29.664Z,16.55
2023-04-02T14:49:05.168Z,15.92
2023-04-02T14:51:38.508Z,14.84
2023-04-02T14:54:14.679Z,14.37
2023-04-02T14:56:48.944Z,14.28
2023-04-02T14:59:30.660Z,13.87
2023-04-02T15:02:04.433Z,13.76
2023-04-02T15:04:36.490Z,13.75
2023-04-02T15:07:11.429Z,13.51
2023-04-02T15:09:46.827Z,13.40
2023-04-02T15:12:23.229Z,13.30
2023-04-02T15:15:00.682Z,13.11
2023-04-02T15:17:30.572Z,12.89
2023-04-02T15:20:11.820Z,12.89
2023-04-02T15:22:47.825Z,12.97
2023-04-02T15:25:29.293Z,12.99
2023-04-02T15:28:08.424Z,12.90
2023-04-02T15:30:40.242Z,12.89
2023-04-02T15:33:44.669Z,12.77
2023-04-02T15:36:51.611Z,12.62
2023-04-02T15:39:40.671Z,12.41
2023-04-02T15:42:20.382Z,12.05
2023-04-02T15:45:06.709Z,11.81
2023-04-02T15:47:45.275Z,11.70
2023-04-02T15:50:34.444Z,11.53
2023-04-02T15:53:15.618Z,11.42
2023-04-02T15:55:51.324Z,11.42
2023-04-02T15:58:52.834Z,11.40
2023-04-02T16:01:32.969Z,11.22
2023-04-02T16:04:19.580Z,11.12
2023-04-02T16:07:10.456Z,11.14
2023-04-02T16:09:52.238Z,11.05
2023-04-02T16:12:22.100Z,11.22
2023-04-02T16:15:06.344Z,11.18
2023-04-02T16:17:40.775Z,11.21
2023-04-02T16:20:21.460Z,11.01
2023-04-02T16:23:01.005Z,10.82
2023-04-02T16:25:36.014Z,10.95
2023-04-02T16:28:16.018Z,11.07
2023-04-02T16:30:59.468Z,10.94
2023-04-02T16:33:53.465Z,10.90
2023-04-02T16:36:35.863Z,10.74
2023-04-02T16:39:16.340Z,10.71
2023-04-02T16:42:01.200Z,10.81
2023-04-02T16:44:41.193Z,10.80
2023-04-02T16:47:27.132Z,10.70
2023-04-02T16:50:02.416Z,10.68
2023-04-02T16:52:40.279Z,10.64
2023-04-02T16:55:41.228Z,10.65
2023-04-02T16:58:24.597Z,10.68
2023-04-02T17:00:58.267Z,10.60
2023-04-02T17:03:50.022Z,10.61
2023-04-02T17:06:30.099Z,10.64
2023-04-02T17:09:19.096Z,10.56
2023-04-02T17:11:51.467Z,10.46
2023-04-02T17:14:30.854Z,10.30
2023-04-02T17:17:03.841Z,10.30
2023-04-02T17:19:34.700Z,10.23
2023-04-02T17:22:06.848Z,10.15
2023-04-02T17:24:38.542Z,10.03
2023-04-02T17:27:14.342Z,10.05
2023-04-02T17:29:46.730Z,10.06
2023-04-02T17:32:21.149Z,10.05
2023-04-02T17:34:52.754Z,9.98
2023-04-02T17:37:31.370Z,10.01
2023-04-02T17:40:09.783Z,9.95
2023-04-02T17:42:49.717Z,9.92
2023-04-02T17:45:23.511Z,9.79
2023-04-02T17:48:02.182Z,9.74
2023-04-02T17:50:49.963Z,9.67
2023-04-02T17:53:27.081Z,9.62
2023-04-02T17:56:08.375Z,9.62
2023-04-02T17:58:55.688Z,9.62
2023-04-02T18:01:29.774Z,9.67
2023-04-02T18:04:12.580Z,9.68
2023-04-02T18:06:51.774Z,9.77
2023-04-02T18:09:31.759Z,9.91
2023-04-02T18:12:15.298Z,10.09
2023-04-02T18:14:57.309Z,9.92
2023-04-02T18:17:36.645Z,9.73
2023-04-02T18:20:17.517Z,9.61
2023-04-02T18:22:56.346Z,9.58
2023-04-02T18:25:33.985Z,9.52
2023-04-02T18:28:17.524Z,9.50
2023-04-02T18:30:55.786Z,9.38
2023-04-02T18:33:38.221Z,9.43
2023-04-02T18:36:18.138Z,9.36
2023-04-02T18:38:51.550Z,9.22
2023-04-02T18:41:32.790Z,9.06
2023-04-02T18:44:16.696Z,9.13
2023-04-02T18:46:50.659Z,8.96
2023-04-02T18:49:34.169Z,9.00
2023-04-02T18:52:05.352Z,8.96
2023-04-02T18:54:40.885Z,8.79
2023-04-02T18:57:13.542Z,8.83
2023-04-02T18:59:48.946Z,8.80
2023-04-02T19:02:36.041Z,8.71
2023-04-02T19:05:07.757Z,8.59
2023-04-02T19:07:40.266Z,8.47
2023-04-02T19:10:30.788Z,8.34
2023-04-02T19:12:59.480Z,8.23
2023-04-02T19:15:35.851Z,8.29
2023-04-02T19:18:14.167Z,8.26
2023-04-02T19:20:50.572Z,8.17
2023-04-02T19:23:33.263Z,8.06
2023-04-02T19:26:11.974Z,8.13
2023-04-02T19:28:47.687Z,8.17
2023-04-02T19:31:35.872Z,8.06
2023-04-02T19:34:15.578Z,8.06
2023-04-02T19:36:48.300Z,8.20
2023-04-02T19:39:34.627Z,8.26
2023-04-02T19:42:12.353Z,8.24
2023-04-02T19:44:45.355Z,8.21
2023-04-02T19:47:17.724Z,8.27
2023-04-02T19:49:46.813Z,8.41
2023-04-02T19:52:19.565Z,8.34
2023-04-02T19:54:49.630Z,8.38
2023-04-02T19:57:20.804Z,8.45
2023-04-02T19:59:49.626Z,8.44
2023-04-02T20:02:18.165Z,8.44
2023-04-02T20:04:48.844Z,8.42
2023-04-02T20:07:17.883Z,8.44
2023-04-02T20:09:49.809Z,8.40
2023-04-02T20:12:20.706Z,8.44
2023-04-02T20:14:49.758Z,8.52
2023-04-02T20:17:19.075Z,8.47
2023-04-02T20:19:47.435Z,8.44
2023-04-02T20:22:16.319Z,8.44
2023-04-02T20:24:44.566Z,8.44
2023-04-02T20:27:12.860Z,8.44
2023-04-02T20:29:46.448Z,8.42
2023-04-02T20:32:14.837Z,8.34
2023-04-02T20:34:43.028Z,8.33
2023-04-02T20:37:11.649Z,8.51
2023-04-02T20:39:40.071Z,8.59
2023-04-02T20:42:08.480Z,8.58
2023-04-02T20:44:37.538Z,8.47
2023-04-02T20:47:08.163Z,8.59
2023-04-02T20:49:38.668Z,8.76
2023-04-02T20:52:07.522Z,8.73
2023-04-02T20:54:52.895Z,8.65
2023-04-02T20:57:23.190Z,8.59
2023-04-02T20:59:52.970Z,8.67
2023-04-02T21:02:27.342Z,8.75
2023-04-02T21:04:56.445Z,8.69
2023-04-02T21:07:25.267Z,8.82
2023-04-02T21:09:55.821Z,8.76
2023-04-02T21:12:25.566Z,8.61
2023-04-02T21:14:59.725Z,8.52
2023-04-02T21:17:32.514Z,8.36
2023-04-02T21:20:02.370Z,8.24
2023-04-02T21:22:32.870Z,8.19
2023-04-02T21:25:03.034Z,8.54
2023-04-02T21:27:35.155Z,8.51
2023-04-02T21:30:04.313Z,8.62
2023-04-02T21:32:35.570Z,8.78
2023-04-02T21:35:05.863Z,8.76
2023-04-02T21:37:36.674Z,8.75
2023-04-02T21:40:08.398Z,8.69
2023-04-02T21:42:37.209Z,8.68
2023-04-02T21:45:07.688Z,8.52
2023-04-02T21:47:37.587Z,8.29
2023-04-02T21:50:07.852Z,8.02
2023-04-02T21:52:37.873Z,7.78
2023-04-02T21:55:09.270Z,7.68
2023-04-02T21:57:38.004Z,7.50
2023-04-02T22:00:09.310Z,7.32
2023-04-02T22:02:39.191Z,7.17
2023-04-02T22:05:08.586Z,7.08
2023-04-02T22:07:37.143Z,7.04
2023-04-02T22:10:14.225Z,7.03
2023-04-02T22:12:42.616Z,6.97
2023-04-02T22:15:11.926Z,7.06
2023-04-02T22:17:41.946Z,7.10
2023-04-02T22:20:11.326Z,7.14
2023-04-02T22:22:39.538Z,7.18
2023-04-02T22:25:10.567Z,7.17
2023-04-02T22:27:42.941Z,7.15
2023-04-02T22:30:13.166Z,7.10
2023-04-02T22:32:45.346Z,7.08
2023-04-02T22:35:17.678Z,7.03
2023-04-02T22:37:46.541Z,7.00
2023-04-02T22:40:15.605Z,7.00
2023-04-02T22:42:44.117Z,6.99
2023-04-02T22:45:13.794Z,6.97
2023-04-02T22:47:44.594Z,6.99
2023-04-02T22:50:16.919Z,6.96
2023-04-02T22:52:49.398Z,6.83
2023-04-02T22:55:19.424Z,6.75
2023-04-02T22:57:48.666Z,6.75
2023-04-02T23:00:19.022Z,6.71
2023-04-02T23:02:49.076Z,6.65
2023-04-02T23:05:18.086Z,6.59
2023-04-02T23:07:46.885Z,6.57
2023-04-02T23:10:15.825Z,6.50
2023-04-02T23:12:44.074Z,6.52
2023-04-02T23:15:16.559Z,6.52
2023-04-02T23:17:49.094Z,6.49
2023-04-02T23:20:17.614Z,6.57
2023-04-02T23:22:46.387Z,6.55
2023-04-02T23:25:14.897Z,6.64
2023-04-02T23:27:43.177Z,6.61
2023-04-02T23:30:12.394Z,6.62
2023-04-02T23:32:40.914Z,6.57
2023-04-02T23:35:11.089Z,6.62
2023-04-02T23:37:39.417Z,6.53
2023-04-02T23:40:11.696Z,6.64
2023-04-02T23:42:40.063Z,6.62
2023-04-02T23:45:09.811Z,6.50
2023-04-02T23:47:38.397Z,6.49
2023-04-02T23:50:07.664Z,6.41
2023-04-02T23:52:39.075Z,6.25
2023-04-02T23:55:07.869Z,6.24
2023-04-02T23:57:36.049Z,6.20
